sensor_id;sensor_type;location;lat;lon;timestamp;temperature;humidity
37285;DHT22;23172;53.550;9.964;2023-03-01T00:04:38;5.20;66.60
37285;DHT22;23172;53.550;9.964;2023-03-01T00:09:40;5.20;67.30
37285;DHT22;23172;53.550;9.964;2023-03-01T00:14:41;5.10;67.80
37285;DHT22;23172;53.550;9.964;2023-03-01T00:19:45;5.10;68.00
37285;DHT22;23172;53.550;9.964;2023-03-01T00:24:47;5.10;68.30
37285;DHT22;23172;53.550;9.964;2023-03-01T00:29:49;5.10;68.30
37285;DHT22;23172;53.550;9.964;2023-03-01T00:34:52;5.10;68.30
37285;DHT22;23172;53.550;9.964;2023-03-01T00:39:55;5.00;68.30
37285;DHT22;23172;53.550;9.964;2023-03-01T00:44:57;5.00;69.40
37285;DHT22;23172;53.550;9.964;2023-03-01T00:50:00;5.00;70.10
37285;DHT22;23172;53.550;9.964;2023-03-01T00:55:03;4.90;70.70
37285;DHT22;23172;53.550;9.964;2023-03-01T01:00:06;4.90;70.70
37285;DHT22;23172;53.550;9.964;2023-03-01T01:05:11;4.90;70.60
37285;DHT22;23172;53.550;9.964;2023-03-01T01:10:13;4.90;71.00
37285;DHT22;23172;53.550;9.964;2023-03-01T01:15:17;4.80;72.10
37285;DHT22;23172;53.550;9.964;2023-03-01T01:20:21;4.80;71.40
37285;DHT22;23172;53.550;9.964;2023-03-01T01:25:22;4.80;71.60
37285;DHT22;23172;53.550;9.964;2023-03-01T01:30:25;4.70;71.50
37285;DHT22;23172;53.550;9.964;2023-03-01T01:35:29;4.70;71.40
37285;DHT22;23172;53.550;9.964;2023-03-01T01:40:30;4.70;71.40
37285;DHT22;23172;53.550;9.964;2023-03-01T01:45:34;4.70;71.40
37285;DHT22;23172;53.550;9.964;2023-03-01T01:50:39;4.70;71.20
37285;DHT22;23172;53.550;9.964;2023-03-01T01:55:43;4.70;70.50
37285;DHT22;23172;53.550;9.964;2023-03-01T02:00:47;4.70;70.40
37285;DHT22;23172;53.550;9.964;2023-03-01T02:05:56;4.70;70.30
37285;DHT22;23172;53.550;9.964;2023-03-01T02:11:00;4.70;70.30
37285;DHT22;23172;53.550;9.964;2023-03-01T02:16:05;4.70;70.10
37285;DHT22;23172;53.550;9.964;2023-03-01T02:21:21;4.70;69.80
37285;DHT22;23172;53.550;9.964;2023-03-01T02:26:33;4.60;69.60
37285;DHT22;23172;53.550;9.964;2023-03-01T02:31:38;4.60;70.30
37285;DHT22;23172;53.550;9.964;2023-03-01T02:36:45;4.60;69.40
37285;DHT22;23172;53.550;9.964;2023-03-01T02:41:51;4.60;69.40
37285;DHT22;23172;53.550;9.964;2023-03-01T02:46:56;4.50;69.20
37285;DHT22;23172;53.550;9.964;2023-03-01T02:52:07;4.50;69.10
37285;DHT22;23172;53.550;9.964;2023-03-01T02:57:10;4.50;69.10
37285;DHT22;23172;53.550;9.964;2023-03-01T03:02:25;4.50;69.00
37285;DHT22;23172;53.550;9.964;2023-03-01T03:07:40;4.50;69.20
37285;DHT22;23172;53.550;9.964;2023-03-01T03:12:42;4.40;69.40
37285;DHT22;23172;53.550;9.964;2023-03-01T03:17:46;4.40;69.70
37285;DHT22;23172;53.550;9.964;2023-03-01T03:22:52;4.30;69.80
37285;DHT22;23172;53.550;9.964;2023-03-01T03:27:55;4.30;69.80
37285;DHT22;23172;53.550;9.964;2023-03-01T03:32:59;4.30;70.10
37285;DHT22;23172;53.550;9.964;2023-03-01T03:38:04;4.30;70.70
37285;DHT22;23172;53.550;9.964;2023-03-01T03:43:09;4.20;70.70
37285;DHT22;23172;53.550;9.964;2023-03-01T03:48:12;4.20;70.80
37285;DHT22;23172;53.550;9.964;2023-03-01T03:53:14;4.20;70.90
37285;DHT22;23172;53.550;9.964;2023-03-01T03:58:17;4.20;70.80
37285;DHT22;23172;53.550;9.964;2023-03-01T04:03:22;4.20;70.80
37285;DHT22;23172;53.550;9.964;2023-03-01T04:08:25;4.30;70.80
37285;DHT22;23172;53.550;9.964;2023-03-01T04:13:27;4.40;70.50
37285;DHT22;23172;53.550;9.964;2023-03-01T04:18:30;4.50;70.40
37285;DHT22;23172;53.550;9.964;2023-03-01T04:23:32;4.50;70.70
37285;DHT22;23172;53.550;9.964;2023-03-01T04:28:36;4.60;70.70
37285;DHT22;23172;53.550;9.964;2023-03-01T04:33:40;4.60;70.70
37285;DHT22;23172;53.550;9.964;2023-03-01T04:38:42;4.60;70.90
37285;DHT22;23172;53.550;9.964;2023-03-01T04:43:48;4.70;71.30
37285;DHT22;23172;53.550;9.964;2023-03-01T04:48:51;4.70;71.60
37285;DHT22;23172;53.550;9.964;2023-03-01T04:53:53;4.70;71.40
37285;DHT22;23172;53.550;9.964;2023-03-01T04:58:55;4.70;71.50
37285;DHT22;23172;53.550;9.964;2023-03-01T05:03:58;4.80;71.30
37285;DHT22;23172;53.550;9.964;2023-03-01T05:09:03;4.80;71.10
37285;DHT22;23172;53.550;9.964;2023-03-01T05:14:06;4.80;71.00
37285;DHT22;23172;53.550;9.964;2023-03-01T05:19:10;4.80;71.00
37285;DHT22;23172;53.550;9.964;2023-03-01T05:24:15;4.80;71.10
37285;DHT22;23172;53.550;9.964;2023-03-01T05:29:17;4.80;70.90
37285;DHT22;23172;53.550;9.964;2023-03-01T05:34:28;4.90;70.90
37285;DHT22;23172;53.550;9.964;2023-03-01T05:39:30;5.00;70.80
37285;DHT22;23172;53.550;9.964;2023-03-01T05:44:32;5.00;70.60
37285;DHT22;23172;53.550;9.964;2023-03-01T05:49:36;5.00;70.60
37285;DHT22;23172;53.550;9.964;2023-03-01T05:54:38;5.00;71.50
37285;DHT22;23172;53.550;9.964;2023-03-01T05:59:40;5.00;70.70
37285;DHT22;23172;53.550;9.964;2023-03-01T06:04:43;5.00;70.50
37285;DHT22;23172;53.550;9.964;2023-03-01T06:09:45;5.00;70.50
37285;DHT22;23172;53.550;9.964;2023-03-01T06:14:47;5.10;70.30
37285;DHT22;23172;53.550;9.964;2023-03-01T06:19:50;5.10;70.20
37285;DHT22;23172;53.550;9.964;2023-03-01T06:24:52;5.10;70.00
37285;DHT22;23172;53.550;9.964;2023-03-01T06:29:54;5.10;70.70
37285;DHT22;23172;53.550;9.964;2023-03-01T06:34:57;5.20;71.40
37285;DHT22;23172;53.550;9.964;2023-03-01T06:39:59;5.10;71.80
37285;DHT22;23172;53.550;9.964;2023-03-01T06:45:06;5.10;72.20
37285;DHT22;23172;53.550;9.964;2023-03-01T06:50:10;5.20;72.40
37285;DHT22;23172;53.550;9.964;2023-03-01T06:55:13;5.20;72.80
37285;DHT22;23172;53.550;9.964;2023-03-01T07:00:19;5.20;73.10
37285;DHT22;23172;53.550;9.964;2023-03-01T07:05:22;5.20;73.40
37285;DHT22;23172;53.550;9.964;2023-03-01T07:10:24;5.20;73.40
37285;DHT22;23172;53.550;9.964;2023-03-01T07:15:27;5.40;73.30
37285;DHT22;23172;53.550;9.964;2023-03-01T07:20:30;5.50;72.70
37285;DHT22;23172;53.550;9.964;2023-03-01T07:25:32;5.60;72.10
37285;DHT22;23172;53.550;9.964;2023-03-01T07:30:34;5.70;71.40
37285;DHT22;23172;53.550;9.964;2023-03-01T07:35:37;5.80;71.20
37285;DHT22;23172;53.550;9.964;2023-03-01T07:40:39;5.90;71.20
37285;DHT22;23172;53.550;9.964;2023-03-01T07:45:41;6.00;71.20
37285;DHT22;23172;53.550;9.964;2023-03-01T07:50:44;6.10;71.10
37285;DHT22;23172;53.550;9.964;2023-03-01T07:55:46;6.20;71.00
37285;DHT22;23172;53.550;9.964;2023-03-01T08:00:48;6.30;71.10
37285;DHT22;23172;53.550;9.964;2023-03-01T08:05:51;6.40;71.00
37285;DHT22;23172;53.550;9.964;2023-03-01T08:10:55;6.50;71.10
37285;DHT22;23172;53.550;9.964;2023-03-01T08:16:01;6.70;71.00
37285;DHT22;23172;53.550;9.964;2023-03-01T08:21:06;6.80;70.60
37285;DHT22;23172;53.550;9.964;2023-03-01T08:26:10;6.90;70.50
37285;DHT22;23172;53.550;9.964;2023-03-01T08:31:17;7.10;70.30
37285;DHT22;23172;53.550;9.964;2023-03-01T08:36:20;7.20;70.20
37285;DHT22;23172;53.550;9.964;2023-03-01T08:41:22;7.20;69.90
37285;DHT22;23172;53.550;9.964;2023-03-01T08:46:25;7.30;70.10
37285;DHT22;23172;53.550;9.964;2023-03-01T08:51:28;7.50;70.40
37285;DHT22;23172;53.550;9.964;2023-03-01T08:56:32;7.70;69.80
37285;DHT22;23172;53.550;9.964;2023-03-01T09:01:36;7.70;70.00
37285;DHT22;23172;53.550;9.964;2023-03-01T09:06:39;7.70;70.20
37285;DHT22;23172;53.550;9.964;2023-03-01T09:11:41;7.70;70.30
37285;DHT22;23172;53.550;9.964;2023-03-01T09:16:43;7.80;70.50
37285;DHT22;23172;53.550;9.964;2023-03-01T09:21:46;7.90;70.60
37285;DHT22;23172;53.550;9.964;2023-03-01T09:26:54;8.10;70.70
37285;DHT22;23172;53.550;9.964;2023-03-01T09:31:57;8.30;70.90
37285;DHT22;23172;53.550;9.964;2023-03-01T09:37:00;8.40;70.40
37285;DHT22;23172;53.550;9.964;2023-03-01T09:42:03;8.70;70.10
37285;DHT22;23172;53.550;9.964;2023-03-01T09:47:09;8.90;69.80
37285;DHT22;23172;53.550;9.964;2023-03-01T09:52:23;9.20;69.40
37285;DHT22;23172;53.550;9.964;2023-03-01T09:57:30;9.40;69.10
37285;DHT22;23172;53.550;9.964;2023-03-01T10:02:39;9.40;68.80
37285;DHT22;23172;53.550;9.964;2023-03-01T10:07:49;9.20;69.10
37285;DHT22;23172;53.550;9.964;2023-03-01T10:12:56;9.00;69.90
37285;DHT22;23172;53.550;9.964;2023-03-01T10:18:01;8.90;70.40
37285;DHT22;23172;53.550;9.964;2023-03-01T10:23:10;8.90;70.60
37285;DHT22;23172;53.550;9.964;2023-03-01T10:28:16;9.10;70.90
37285;DHT22;23172;53.550;9.964;2023-03-01T10:33:22;9.40;70.40
37285;DHT22;23172;53.550;9.964;2023-03-01T10:38:26;9.50;70.50
37285;DHT22;23172;53.550;9.964;2023-03-01T10:43:40;9.60;70.30
37285;DHT22;23172;53.550;9.964;2023-03-01T10:48:44;9.50;70.30
37285;DHT22;23172;53.550;9.964;2023-03-01T10:53:49;9.50;70.90
37285;DHT22;23172;53.550;9.964;2023-03-01T10:58:59;9.50;70.80
37285;DHT22;23172;53.550;9.964;2023-03-01T11:04:10;9.40;71.90
37285;DHT22;23172;53.550;9.964;2023-03-01T11:09:19;9.30;72.20
37285;DHT22;23172;53.550;9.964;2023-03-01T11:14:23;9.20;73.00
37285;DHT22;23172;53.550;9.964;2023-03-01T11:19:25;9.00;73.50
37285;DHT22;23172;53.550;9.964;2023-03-01T11:24:34;8.80;74.40
37285;DHT22;23172;53.550;9.964;2023-03-01T11:29:40;8.70;75.40
37285;DHT22;23172;53.550;9.964;2023-03-01T11:34:48;8.70;75.70
37285;DHT22;23172;53.550;9.964;2023-03-01T11:39:58;8.70;76.70
37285;DHT22;23172;53.550;9.964;2023-03-01T11:45:08;8.60;77.30
37285;DHT22;23172;53.550;9.964;2023-03-01T11:50:17;8.60;77.90
37285;DHT22;23172;53.550;9.964;2023-03-01T11:55:45;8.50;78.40
37285;DHT22;23172;53.550;9.964;2023-03-01T12:01:00;8.60;78.80
37285;DHT22;23172;53.550;9.964;2023-03-01T12:06:31;8.60;79.20
37285;DHT22;23172;53.550;9.964;2023-03-01T12:11:45;8.60;79.40
37285;DHT22;23172;53.550;9.964;2023-03-01T12:17:02;8.70;79.00
37285;DHT22;23172;53.550;9.964;2023-03-01T12:22:21;8.80;78.90
37285;DHT22;23172;53.550;9.964;2023-03-01T12:27:45;8.80;79.30
37285;DHT22;23172;53.550;9.964;2023-03-01T12:32:59;8.80;79.30
37285;DHT22;23172;53.550;9.964;2023-03-01T12:38:18;8.90;79.40
37285;DHT22;23172;53.550;9.964;2023-03-01T12:43:36;8.90;79.70
37285;DHT22;23172;53.550;9.964;2023-03-01T12:48:50;8.80;80.60
37285;DHT22;23172;53.550;9.964;2023-03-01T12:53:58;8.80;80.60
37285;DHT22;23172;53.550;9.964;2023-03-01T12:59:11;8.80;81.00
37285;DHT22;23172;53.550;9.964;2023-03-01T13:04:33;8.90;81.40
37285;DHT22;23172;53.550;9.964;2023-03-01T13:09:40;9.00;82.50
37285;DHT22;23172;53.550;9.964;2023-03-01T13:14:47;9.00;81.90
37285;DHT22;23172;53.550;9.964;2023-03-01T13:19:56;9.10;82.10
37285;DHT22;23172;53.550;9.964;2023-03-01T13:25:13;9.10;82.50
37285;DHT22;23172;53.550;9.964;2023-03-01T13:30:43;9.10;82.70
37285;DHT22;23172;53.550;9.964;2023-03-01T13:35:45;9.20;82.70
37285;DHT22;23172;53.550;9.964;2023-03-01T13:40:59;9.20;82.40
37285;DHT22;23172;53.550;9.964;2023-03-01T13:46:09;9.20;82.70
37285;DHT22;23172;53.550;9.964;2023-03-01T13:51:12;9.20;83.40
37285;DHT22;23172;53.550;9.964;2023-03-01T13:56:17;9.10;83.70
37285;DHT22;23172;53.550;9.964;2023-03-01T14:01:24;9.10;83.90
37285;DHT22;23172;53.550;9.964;2023-03-01T14:06:28;9.10;84.00
37285;DHT22;23172;53.550;9.964;2023-03-01T14:22:49;9.10;84.50
37285;DHT22;23172;53.550;9.964;2023-03-01T14:28:00;9.10;84.30
37285;DHT22;23172;53.550;9.964;2023-03-01T14:33:06;9.00;84.30
37285;DHT22;23172;53.550;9.964;2023-03-01T14:38:20;8.90;84.70
37285;DHT22;23172;53.550;9.964;2023-03-01T14:43:23;8.90;85.00
37285;DHT22;23172;53.550;9.964;2023-03-01T14:48:27;8.80;85.50
37285;DHT22;23172;53.550;9.964;2023-03-01T14:53:30;8.90;85.50
37285;DHT22;23172;53.550;9.964;2023-03-01T14:58:33;8.80;84.80
37285;DHT22;23172;53.550;9.964;2023-03-01T15:03:36;8.80;84.50
37285;DHT22;23172;53.550;9.964;2023-03-01T15:08:42;8.90;84.10
37285;DHT22;23172;53.550;9.964;2023-03-01T15:13:46;8.80;84.50
37285;DHT22;23172;53.550;9.964;2023-03-01T15:18:49;8.70;84.60
37285;DHT22;23172;53.550;9.964;2023-03-01T15:23:56;8.70;85.10
37285;DHT22;23172;53.550;9.964;2023-03-01T15:28:59;8.70;85.20
37285;DHT22;23172;53.550;9.964;2023-03-01T15:34:10;8.70;85.40
37285;DHT22;23172;53.550;9.964;2023-03-01T15:39:44;8.70;85.80
37285;DHT22;23172;53.550;9.964;2023-03-01T15:45:08;8.70;85.70
37285;DHT22;23172;53.550;9.964;2023-03-01T15:50:17;8.60;85.60
37285;DHT22;23172;53.550;9.964;2023-03-01T15:55:23;8.60;85.90
37285;DHT22;23172;53.550;9.964;2023-03-01T16:00:28;8.50;86.50
37285;DHT22;23172;53.550;9.964;2023-03-01T16:05:32;8.40;87.20
37285;DHT22;23172;53.550;9.964;2023-03-01T16:10:36;8.50;87.30
37285;DHT22;23172;53.550;9.964;2023-03-01T16:15:39;8.40;87.50
37285;DHT22;23172;53.550;9.964;2023-03-01T16:20:41;8.40;88.10
37285;DHT22;23172;53.550;9.964;2023-03-01T16:25:44;8.30;88.40
37285;DHT22;23172;53.550;9.964;2023-03-01T16:30:47;8.30;89.60
37285;DHT22;23172;53.550;9.964;2023-03-01T16:35:49;8.20;88.90
37285;DHT22;23172;53.550;9.964;2023-03-01T16:40:53;8.20;89.30
37285;DHT22;23172;53.550;9.964;2023-03-01T16:45:55;8.10;89.50
37285;DHT22;23172;53.550;9.964;2023-03-01T16:50:58;8.10;89.80
37285;DHT22;23172;53.550;9.964;2023-03-01T16:56:03;8.00;89.80
37285;DHT22;23172;53.550;9.964;2023-03-01T17:01:06;8.00;89.80
37285;DHT22;23172;53.550;9.964;2023-03-01T17:06:11;8.00;89.60
37285;DHT22;23172;53.550;9.964;2023-03-01T17:11:16;8.00;89.40
37285;DHT22;23172;53.550;9.964;2023-03-01T17:16:19;8.00;89.40
37285;DHT22;23172;53.550;9.964;2023-03-01T17:21:22;7.90;89.60
37285;DHT22;23172;53.550;9.964;2023-03-01T17:26:26;7.90;90.00
37285;DHT22;23172;53.550;9.964;2023-03-01T17:31:28;7.80;90.10
37285;DHT22;23172;53.550;9.964;2023-03-01T17:36:30;7.80;90.10
37285;DHT22;23172;53.550;9.964;2023-03-01T17:41:42;7.70;90.20
37285;DHT22;23172;53.550;9.964;2023-03-01T17:46:44;7.70;90.50
37285;DHT22;23172;53.550;9.964;2023-03-01T17:51:46;7.60;90.40
37285;DHT22;23172;53.550;9.964;2023-03-01T17:56:50;7.60;90.50
37285;DHT22;23172;53.550;9.964;2023-03-01T18:01:51;7.50;90.70
37285;DHT22;23172;53.550;9.964;2023-03-01T18:06:53;7.40;91.00
37285;DHT22;23172;53.550;9.964;2023-03-01T18:11:57;7.30;91.20
37285;DHT22;23172;53.550;9.964;2023-03-01T18:16:59;7.20;91.30
37285;DHT22;23172;53.550;9.964;2023-03-01T18:22:01;7.10;91.50
37285;DHT22;23172;53.550;9.964;2023-03-01T18:27:05;6.90;91.60
37285;DHT22;23172;53.550;9.964;2023-03-01T18:32:07;6.80;91.70
37285;DHT22;23172;53.550;9.964;2023-03-01T18:37:08;6.80;91.80
37285;DHT22;23172;53.550;9.964;2023-03-01T18:42:12;6.70;91.80
37285;DHT22;23172;53.550;9.964;2023-03-01T18:47:16;6.60;92.00
37285;DHT22;23172;53.550;9.964;2023-03-01T18:52:17;6.50;92.00
37285;DHT22;23172;53.550;9.964;2023-03-01T18:57:21;6.50;92.10
37285;DHT22;23172;53.550;9.964;2023-03-01T19:02:22;6.40;92.20
37285;DHT22;23172;53.550;9.964;2023-03-01T19:07:24;6.30;92.40
37285;DHT22;23172;53.550;9.964;2023-03-01T19:12:27;6.20;92.60
37285;DHT22;23172;53.550;9.964;2023-03-01T19:17:30;6.10;92.70
37285;DHT22;23172;53.550;9.964;2023-03-01T19:22:33;5.90;92.90
37285;DHT22;23172;53.550;9.964;2023-03-01T19:27:36;5.70;93.20
37285;DHT22;23172;53.550;9.964;2023-03-01T19:32:38;5.60;93.70
37285;DHT22;23172;53.550;9.964;2023-03-01T19:47:46;5.50;93.80
37285;DHT22;23172;53.550;9.964;2023-03-01T20:33:11;5.40;94.50
37285;DHT22;23172;53.550;9.964;2023-03-01T20:43:17;5.40;95.80
37285;DHT22;23172;53.550;9.964;2023-03-01T20:48:19;5.50;95.90
37285;DHT22;23172;53.550;9.964;2023-03-01T21:13:33;5.50;95.90
37285;DHT22;23172;53.550;9.964;2023-03-01T21:43:53;5.40;96.40
37285;DHT22;23172;53.550;9.964;2023-03-01T21:48:57;5.40;97.00
37285;DHT22;23172;53.550;9.964;2023-03-01T21:53:59;5.40;97.00
37285;DHT22;23172;53.550;9.964;2023-03-01T21:59:03;5.40;97.10
37285;DHT22;23172;53.550;9.964;2023-03-01T22:04:05;5.40;97.10
37285;DHT22;23172;53.550;9.964;2023-03-01T22:09:08;5.40;97.20
37285;DHT22;23172;53.550;9.964;2023-03-01T22:14:13;5.40;97.20
37285;DHT22;23172;53.550;9.964;2023-03-01T22:19:16;5.40;97.30
37285;DHT22;23172;53.550;9.964;2023-03-01T22:24:21;5.30;97.60
37285;DHT22;23172;53.550;9.964;2023-03-01T22:29:26;5.20;97.90
37285;DHT22;23172;53.550;9.964;2023-03-01T22:34:28;5.20;97.80
37285;DHT22;23172;53.550;9.964;2023-03-01T22:39:30;5.20;97.90
37285;DHT22;23172;53.550;9.964;2023-03-01T22:44:33;5.20;97.90
37285;DHT22;23172;53.550;9.964;2023-03-01T22:49:36;5.20;97.90
37285;DHT22;23172;53.550;9.964;2023-03-01T22:54:38;5.30;97.90
37285;DHT22;23172;53.550;9.964;2023-03-01T22:59:41;5.30;97.80
37285;DHT22;23172;53.550;9.964;2023-03-01T23:04:43;5.30;97.70
37285;DHT22;23172;53.550;9.964;2023-03-01T23:09:47;5.30;97.60
37285;DHT22;23172;53.550;9.964;2023-03-01T23:14:51;5.30;97.80
37285;DHT22;23172;53.550;9.964;2023-03-01T23:19:54;5.30;97.90
37285;DHT22;23172;53.550;9.964;2023-03-01T23:24:55;5.20;97.80
37285;DHT22;23172;53.550;9.964;2023-03-01T23:29:59;5.20;97.80
37285;DHT22;23172;53.550;9.964;2023-03-01T23:35:00;5.20;97.80
37285;DHT22;23172;53.550;9.964;2023-03-01T23:40:03;5.10;97.90
37285;DHT22;23172;53.550;9.964;2023-03-01T23:45:09;5.10;98.00
37285;DHT22;23172;53.550;9.964;2023-03-01T23:50:11;5.10;98.00
37285;DHT22;23172;53.550;9.964;2023-03-01T23:55:13;5.10;97.90
